KAIA

Alliance Municipal Airport

Alliance, Nebraska, USA
KAIA 182326Z 1900/1924 01014KT P6SM OVC008 FM190400 VRB05KT P6SM BKN015 FM190900 VRB06KT P6SM BKN030 FM191100 29008KT P6SM SCT060
Issued Valid From Valid To
Jan-18 @ 23:26 UTC
(3 hours ago)
Jan-19 @ 00:00 UTC
(2 hours ago)
Jan-20 @ 00:00 UTC
(in 22 hours)
Jan-19 @ 00:00 to Jan-19 @ 04:00
KAIA 182326Z 1900/1924 01014KT P6SM OVC008
Wind Visibility Clouds
10° at 14 knots Greater than 6 miles
  • Overcast at 800' AGL
From Jan-19 @ 04:00 to Jan-19 @ 09:00
FM190400 VRB05KT P6SM BKN015
Wind Visibility Clouds
Variable at 5 knots Greater than 6 miles
  • Broken at 1,500' AGL
From Jan-19 @ 09:00 to Jan-19 @ 11:00
FM190900 VRB06KT P6SM BKN030
Wind Visibility Clouds
Variable at 6 knots Greater than 6 miles
  • Broken at 3,000' AGL
From Jan-19 @ 11:00 to Jan-20 @ 00:00
FM191100 29008KT P6SM SCT060
Wind Visibility Clouds
290° at 8 knots Greater than 6 miles
  • Scattered at 6,000' AGL
KAIA 182326Z 1900/1924 01014KT P6SM OVC008 FM190400 VRB05KT P6SM BKN015 FM190900 VRB06KT P6SM BKN030 FM191100 29008KT P6SM SCT060
Issued Jan-18 @ 23:26 UTC
(3 hours ago)
Valid From Jan-19 @ 00:00 UTC
(2 hours ago)
Valid To Jan-20 @ 00:00 UTC
(in 22 hours)
Jan-19 @ 00:00 - Jan-19 @ 04:00
Wind Visibility
10° at 14 knots Greater than 6 miles
Clouds
  • Overcast at 800' AGL
From Jan-19 @ 04:00 - Jan-19 @ 09:00
Wind Visibility
Variable at 5 knots Greater than 6 miles
Clouds
  • Broken at 1,500' AGL
From Jan-19 @ 09:00 - Jan-19 @ 11:00
Wind Visibility
Variable at 6 knots Greater than 6 miles
Clouds
  • Broken at 3,000' AGL
From Jan-19 @ 11:00 - Jan-20 @ 00:00
Wind Visibility
290° at 8 knots Greater than 6 miles
Clouds
  • Scattered at 6,000' AGL